createdAt,value
2023-04-30T00:02:28.663Z,2.88
2023-04-30T00:06:32.283Z,2.63
2023-04-30T00:10:35.367Z,3.10
2023-04-30T00:14:38.856Z,2.90
2023-04-30T00:18:43.170Z,3.15
2023-04-30T00:22:46.248Z,3.00
2023-04-30T00:26:49.199Z,2.92
2023-04-30T00:30:52.282Z,2.92
2023-04-30T00:34:56.626Z,3.47
2023-04-30T00:38:59.672Z,3.47
2023-04-30T00:43:02.686Z,3.40
2023-04-30T00:47:06.771Z,3.58
2023-04-30T00:51:11.403Z,4.25
2023-04-30T00:55:15.039Z,4.18
2023-04-30T00:59:18.805Z,4.47
2023-04-30T01:03:23.488Z,3.90
2023-04-30T01:07:28.728Z,4.50
2023-04-30T01:11:46.890Z,4.32
2023-04-30T01:15:59.219Z,4.57
2023-04-30T01:20:03.748Z,4.30
2023-04-30T01:24:33.816Z,4.28
2023-04-30T01:28:39.550Z,5.18
2023-04-30T01:32:42.637Z,4.53
2023-04-30T01:36:59.651Z,4.55
2023-04-30T01:41:11.820Z,3.88
2023-04-30T01:45:31.580Z,4.03
2023-04-30T01:49:51.124Z,4.10
2023-04-30T01:53:59.160Z,3.85
2023-04-30T01:58:06.336Z,4.18
2023-04-30T02:02:10.890Z,4.22
2023-04-30T02:06:14.035Z,4.47
2023-04-30T02:10:18.699Z,5.55
2023-04-30T02:14:21.633Z,5.05
2023-04-30T02:18:30.662Z,4.90
2023-04-30T02:22:33.734Z,5.22
2023-04-30T02:26:36.786Z,5.07
2023-04-30T02:30:39.872Z,5.20
2023-04-30T02:34:44.310Z,5.28
2023-04-30T02:38:47.266Z,5.50
2023-04-30T02:42:50.357Z,5.90
2023-04-30T02:46:53.354Z,6.00
2023-04-30T02:50:57.782Z,5.72
2023-04-30T02:55:00.751Z,5.55
2023-04-30T02:59:03.770Z,6.68
2023-04-30T03:03:06.998Z,6.00
2023-04-30T03:07:11.625Z,5.88
2023-04-30T03:11:14.737Z,6.22
2023-04-30T03:15:17.912Z,6.10
2023-04-30T03:19:25.059Z,6.18
2023-04-30T03:23:30.060Z,6.65
2023-04-30T03:27:33.046Z,6.57
2023-04-30T03:31:36.202Z,6.15
2023-04-30T03:35:39.187Z,6.78
2023-04-30T03:39:43.916Z,6.93
2023-04-30T03:43:46.936Z,6.82
2023-04-30T03:47:51.512Z,6.88
2023-04-30T03:51:54.590Z,6.80
2023-04-30T03:55:59.854Z,6.85
2023-04-30T04:00:04.584Z,6.53
2023-04-30T04:04:16.118Z,6.13
2023-04-30T04:08:19.346Z,6.88
2023-04-30T04:12:24.070Z,6.85
2023-04-30T04:16:27.259Z,6.30
2023-04-30T04:20:30.668Z,6.90
2023-04-30T04:24:33.867Z,6.45
2023-04-30T04:28:39.146Z,6.18
2023-04-30T04:32:46.689Z,6.65
2023-04-30T04:36:49.859Z,6.55
2023-04-30T04:40:54.275Z,6.18
2023-04-30T04:44:59.566Z,6.00
2023-04-30T04:49:02.598Z,5.40
2023-04-30T04:53:05.918Z,5.85
2023-04-30T04:57:09.032Z,6.15
2023-04-30T05:01:13.959Z,6.18
2023-04-30T05:05:17.178Z,6.05
2023-04-30T05:09:20.331Z,6.38
2023-04-30T05:13:23.495Z,6.50
2023-04-30T05:17:27.941Z,6.78
2023-04-30T05:21:32.101Z,6.65
2023-04-30T05:25:35.143Z,5.95
2023-04-30T05:29:38.144Z,5.85
2023-04-30T05:33:42.569Z,6.50
2023-04-30T05:37:45.619Z,5.75
2023-04-30T05:41:49.156Z,5.97
2023-04-30T05:45:52.194Z,5.85
2023-04-30T05:49:57.934Z,6.90
2023-04-30T05:54:01.346Z,5.97
2023-04-30T05:58:04.438Z,6.55
2023-04-30T06:02:08.298Z,6.72
2023-04-30T06:06:12.841Z,6.18
2023-04-30T06:10:15.941Z,5.90
2023-04-30T06:14:20.092Z,6.35
2023-04-30T06:18:23.040Z,6.15
2023-04-30T06:22:27.839Z,6.38
2023-04-30T06:26:30.837Z,5.50
2023-04-30T06:30:34.407Z,6.35
2023-04-30T06:34:37.625Z,6.07
2023-04-30T06:38:42.782Z,5.95
2023-04-30T06:42:47.471Z,6.10
2023-04-30T06:46:50.871Z,6.45
2023-04-30T06:50:54.323Z,5.53
2023-04-30T06:54:58.790Z,6.13
2023-04-30T06:59:01.800Z,5.65
2023-04-30T07:03:05.219Z,5.43
2023-04-30T07:07:08.297Z,5.43
2023-04-30T07:11:12.864Z,5.20
2023-04-30T07:15:16.249Z,4.43
2023-04-30T07:19:19.291Z,4.15
2023-04-30T07:23:22.285Z,4.82
2023-04-30T07:27:26.915Z,4.43
2023-04-30T07:31:29.895Z,4.38
2023-04-30T07:35:32.970Z,4.40
2023-04-30T07:39:36.295Z,4.55
2023-04-30T07:43:40.683Z,4.78
2023-04-30T07:47:43.728Z,3.75
2023-04-30T07:51:47.415Z,4.10
2023-04-30T07:55:50.563Z,3.80
2023-04-30T07:59:55.704Z,4.00
2023-04-30T08:03:59.105Z,3.97
2023-04-30T08:08:02.714Z,3.83
2023-04-30T08:12:06.278Z,4.35
2023-04-30T08:16:10.940Z,4.60
2023-04-30T08:20:14.025Z,4.00
2023-04-30T08:24:17.153Z,4.15
2023-04-30T08:28:20.383Z,4.45
2023-04-30T08:32:25.019Z,4.15
2023-04-30T08:36:28.582Z,4.47
2023-04-30T08:40:49.510Z,4.22
2023-04-30T08:44:54.311Z,4.05
2023-04-30T08:48:59.258Z,4.32
2023-04-30T08:53:02.989Z,4.80
2023-04-30T08:57:07.515Z,4.80
2023-04-30T09:01:11.620Z,4.03
2023-04-30T09:05:16.869Z,3.85
2023-04-30T09:09:19.846Z,4.03
2023-04-30T09:13:22.900Z,4.05
2023-04-30T09:17:26.832Z,4.30
2023-04-30T09:21:36.047Z,4.13
2023-04-30T09:25:42.757Z,3.85
2023-04-30T09:29:46.356Z,3.70
2023-04-30T09:33:49.415Z,3.50
2023-04-30T09:37:53.837Z,3.80
2023-04-30T09:42:08.649Z,3.45
2023-04-30T09:46:11.920Z,3.88
2023-04-30T09:50:15.132Z,3.50
2023-04-30T09:54:22.153Z,3.65
2023-04-30T09:58:29.178Z,3.58
2023-04-30T10:02:33.045Z,3.80
2023-04-30T10:06:36.377Z,4.03
2023-04-30T10:10:43.245Z,3.67
2023-04-30T10:14:54.160Z,3.90
2023-04-30T10:19:01.168Z,3.80
2023-04-30T10:23:04.398Z,3.40
2023-04-30T10:27:08.992Z,3.20
2023-04-30T10:31:13.866Z,3.78
2023-04-30T10:35:22.515Z,3.72
2023-04-30T10:39:29.020Z,3.70
2023-04-30T10:43:35.430Z,3.65
2023-04-30T10:47:39.421Z,3.28
2023-04-30T10:51:47.606Z,3.53
2023-04-30T10:55:55.780Z,3.38
2023-04-30T11:00:21.842Z,3.10
2023-04-30T11:04:25.178Z,3.63
2023-04-30T11:08:37.375Z,3.40
2023-04-30T11:12:42.689Z,3.40
2023-04-30T11:16:51.296Z,3.83
2023-04-30T11:20:54.674Z,4.07
2023-04-30T11:25:09.616Z,4.00
2023-04-30T11:29:13.193Z,3.55
2023-04-30T11:33:18.188Z,3.78
2023-04-30T11:37:22.988Z,4.03
2023-04-30T11:41:27.432Z,4.20
2023-04-30T11:45:30.492Z,4.10
2023-04-30T11:49:35.258Z,4.80
2023-04-30T11:53:38.329Z,5.57
2023-04-30T11:57:43.660Z,5.20
2023-04-30T12:01:46.855Z,4.40
2023-04-30T12:05:52.155Z,4.13
2023-04-30T12:09:56.288Z,4.25
2023-04-30T12:14:04.361Z,3.55
2023-04-30T12:18:13.887Z,3.53
2023-04-30T12:22:18.645Z,3.10
2023-04-30T12:26:21.941Z,3.30
2023-04-30T12:30:27.014Z,3.30
2023-04-30T12:34:33.911Z,3.00
2023-04-30T12:38:38.481Z,3.88
2023-04-30T12:42:44.760Z,3.47
2023-04-30T12:46:48.971Z,3.45
2023-04-30T12:50:56.396Z,3.33
2023-04-30T12:55:15.949Z,3.70
2023-04-30T12:59:19.116Z,3.67
2023-04-30T13:03:23.404Z,4.13
2023-04-30T13:07:26.798Z,3.88
2023-04-30T13:11:31.281Z,3.70
2023-04-30T13:15:34.450Z,3.75
2023-04-30T13:19:37.510Z,3.65
2023-04-30T13:23:51.175Z,3.83
2023-04-30T13:27:57.741Z,4.00
2023-04-30T13:32:00.748Z,3.55
2023-04-30T13:36:03.800Z,3.22
2023-04-30T13:40:08.400Z,3.17
2023-04-30T13:44:12.851Z,3.60
2023-04-30T13:48:15.794Z,3.35
2023-04-30T13:52:18.994Z,3.60
2023-04-30T13:56:22.215Z,3.60
2023-04-30T14:00:27.149Z,3.33
2023-04-30T14:04:31.006Z,3.20
2023-04-30T14:08:34.053Z,3.78
2023-04-30T14:12:38.288Z,4.03
2023-04-30T14:16:42.795Z,4.03
2023-04-30T14:20:45.765Z,3.80
2023-04-30T14:24:48.852Z,4.03
2023-04-30T14:28:51.927Z,3.70
2023-04-30T14:32:56.714Z,3.10
2023-04-30T14:37:01.951Z,3.55
2023-04-30T14:41:05.104Z,3.60
2023-04-30T14:45:09.469Z,3.53
2023-04-30T14:49:13.922Z,3.35
2023-04-30T14:53:17.119Z,2.78
2023-04-30T14:57:20.357Z,2.83
2023-04-30T15:01:23.772Z,2.70
2023-04-30T15:05:28.455Z,3.00
2023-04-30T15:09:31.411Z,2.28
2023-04-30T15:13:34.454Z,2.90
2023-04-30T15:17:37.814Z,2.35
2023-04-30T15:21:42.182Z,2.08
2023-04-30T15:25:45.232Z,2.70
2023-04-30T15:29:48.266Z,2.15
2023-04-30T15:33:51.407Z,2.25
2023-04-30T15:37:55.827Z,2.60
2023-04-30T15:41:58.828Z,2.30
2023-04-30T15:46:02.060Z,2.30
2023-04-30T15:50:05.627Z,2.50
2023-04-30T15:54:11.471Z,2.67
2023-04-30T15:58:14.450Z,2.83
2023-04-30T16:02:17.723Z,2.70
2023-04-30T16:06:21.168Z,2.03
2023-04-30T16:10:25.631Z,2.20
2023-04-30T16:14:30.437Z,2.30
2023-04-30T16:18:33.563Z,2.60
2023-04-30T16:22:37.352Z,2.20
2023-04-30T16:26:41.739Z,2.30
2023-04-30T16:30:44.789Z,2.45
2023-04-30T16:34:47.846Z,2.20
2023-04-30T16:38:50.796Z,2.55
2023-04-30T16:42:55.675Z,2.60
2023-04-30T16:46:59.886Z,2.40
2023-04-30T16:51:03.028Z,2.55
2023-04-30T16:55:07.145Z,2.65
2023-04-30T16:59:11.927Z,2.45
2023-04-30T17:03:15.073Z,2.60
2023-04-30T17:07:18.288Z,2.30
2023-04-30T17:11:22.418Z,2.45
2023-04-30T17:15:27.255Z,2.60
2023-04-30T17:19:30.357Z,2.45
2023-04-30T17:23:33.412Z,2.28
2023-04-30T17:27:37.534Z,2.35
2023-04-30T17:31:42.052Z,2.65
2023-04-30T17:35:45.074Z,2.78
2023-04-30T17:39:48.259Z,2.70
2023-04-30T17:43:51.805Z,2.67
2023-04-30T17:47:56.419Z,2.45
2023-04-30T17:52:01.079Z,2.60
2023-04-30T17:56:05.026Z,2.60
2023-04-30T18:00:09.510Z,2.35
2023-04-30T18:04:21.237Z,2.30
2023-04-30T18:08:24.410Z,2.20
2023-04-30T18:12:27.448Z,2.50
2023-04-30T18:16:30.470Z,2.92
2023-04-30T18:20:34.922Z,2.90
2023-04-30T18:24:37.913Z,2.70
2023-04-30T18:28:41.624Z,2.70
2023-04-30T18:32:44.709Z,2.75
2023-04-30T18:36:49.280Z,2.72
2023-04-30T18:40:55.750Z,2.67
2023-04-30T18:44:58.812Z,2.70
2023-04-30T18:49:02.776Z,2.92
2023-04-30T18:53:07.889Z,2.90
2023-04-30T18:57:14.838Z,3.17
2023-04-30T19:01:18.348Z,4.60
2023-04-30T19:05:21.524Z,3.95
2023-04-30T19:09:26.084Z,5.93
2023-04-30T19:13:29.093Z,6.60
2023-04-30T19:17:32.220Z,5.43
2023-04-30T19:21:36.352Z,4.85
2023-04-30T19:25:41.205Z,4.57
2023-04-30T19:29:44.188Z,4.65
2023-04-30T19:33:47.236Z,4.40
2023-04-30T19:37:50.216Z,4.60
2023-04-30T19:41:54.700Z,4.40
2023-04-30T19:45:59.012Z,3.97
2023-04-30T19:50:02.061Z,4.07
2023-04-30T19:54:05.115Z,3.78
2023-04-30T19:58:09.783Z,4.10
2023-04-30T20:02:12.861Z,4.60
2023-04-30T20:06:16.477Z,4.00
2023-04-30T20:10:19.679Z,4.32
2023-04-30T20:14:24.478Z,4.05
2023-04-30T20:18:27.497Z,4.63
2023-04-30T20:22:30.591Z,4.35
2023-04-30T20:26:34.127Z,4.40
2023-04-30T20:30:38.634Z,5.15
2023-04-30T20:34:41.777Z,4.13
2023-04-30T20:38:44.819Z,4.20
2023-04-30T20:42:47.884Z,4.72
2023-04-30T20:46:52.351Z,4.15
2023-04-30T20:50:56.410Z,5.00
2023-04-30T20:54:59.824Z,4.65
2023-04-30T20:59:04.761Z,4.80
2023-04-30T21:03:09.554Z,4.93
2023-04-30T21:07:12.938Z,4.43
2023-04-30T21:11:16.004Z,4.57
2023-04-30T21:15:19.108Z,4.95
2023-04-30T21:19:24.732Z,4.57
2023-04-30T21:23:29.874Z,4.68
2023-04-30T21:27:34.004Z,4.57
2023-04-30T21:31:37.329Z,3.90
2023-04-30T21:35:41.887Z,3.83
2023-04-30T21:39:44.855Z,3.42
2023-04-30T21:43:47.911Z,3.63
2023-04-30T21:47:51.048Z,3.83
2023-04-30T21:51:55.690Z,3.40
2023-04-30T21:55:58.714Z,3.22
2023-04-30T22:00:02.118Z,3.10
2023-04-30T22:04:05.614Z,3.10
2023-04-30T22:08:10.283Z,3.17
2023-04-30T22:12:13.300Z,3.25
2023-04-30T22:16:16.367Z,2.70
2023-04-30T22:20:19.420Z,3.00
2023-04-30T22:24:23.873Z,3.53
2023-04-30T22:28:26.965Z,3.10
2023-04-30T22:32:30.131Z,3.20
2023-04-30T22:36:33.154Z,3.10
2023-04-30T22:40:40.259Z,2.90
2023-04-30T22:44:44.678Z,3.30
2023-04-30T22:48:47.898Z,3.00
2023-04-30T22:52:51.427Z,3.00
2023-04-30T22:56:55.996Z,3.10
2023-04-30T23:00:59.053Z,3.13
2023-04-30T23:05:03.251Z,3.30
2023-04-30T23:09:06.483Z,2.88
2023-04-30T23:13:10.941Z,2.88
2023-04-30T23:17:13.893Z,2.88
2023-04-30T23:21:16.944Z,3.22
2023-04-30T23:25:20.134Z,3.22
2023-04-30T23:29:25.139Z,3.00
2023-04-30T23:33:28.618Z,3.33
2023-04-30T23:37:31.801Z,2.90
2023-04-30T23:41:34.738Z,3.40
2023-04-30T23:45:41.311Z,3.30
2023-04-30T23:49:46.006Z,2.85
2023-04-30T23:59:24.599Z,3.08
